sensor_id;sensor_type;location;lat;lon;timestamp;temperature;humidity
71039;SHT30;58692;43.212;27.908;2022-08-06T00:00:22;24.23;77.46
71039;SHT30;58692;43.212;27.908;2022-08-06T00:02:48;24.43;76.73
71039;SHT30;58692;43.212;27.908;2022-08-06T00:05:13;24.45;76.23
71039;SHT30;58692;43.212;27.908;2022-08-06T00:07:39;24.50;75.73
71039;SHT30;58692;43.212;27.908;2022-08-06T00:10:05;24.47;75.54
71039;SHT30;58692;43.212;27.908;2022-08-06T00:12:33;24.47;75.21
71039;SHT30;58692;43.212;27.908;2022-08-06T00:14:59;24.53;74.87
71039;SHT30;58692;43.212;27.908;2022-08-06T00:17:24;24.48;75.01
71039;SHT30;58692;43.212;27.908;2022-08-06T00:19:50;24.50;74.91
71039;SHT30;58692;43.212;27.908;2022-08-06T00:22:16;24.44;74.92
71039;SHT30;58692;43.212;27.908;2022-08-06T00:24:41;24.51;74.79
71039;SHT30;58692;43.212;27.908;2022-08-06T00:27:07;24.50;74.82
71039;SHT30;58692;43.212;27.908;2022-08-06T00:29:33;24.44;75.10
71039;SHT30;58692;43.212;27.908;2022-08-06T00:31:58;24.47;75.17
71039;SHT30;58692;43.212;27.908;2022-08-06T00:34:24;24.45;75.13
71039;SHT30;58692;43.212;27.908;2022-08-06T00:36:49;24.50;75.20
71039;SHT30;58692;43.212;27.908;2022-08-06T00:39:15;24.48;75.20
71039;SHT30;58692;43.212;27.908;2022-08-06T00:41:40;24.45;75.24
71039;SHT30;58692;43.212;27.908;2022-08-06T00:44:06;24.40;75.38
71039;SHT30;58692;43.212;27.908;2022-08-06T00:46:32;24.37;75.30
71039;SHT30;58692;43.212;27.908;2022-08-06T00:48:57;24.38;75.41
71039;SHT30;58692;43.212;27.908;2022-08-06T00:51:23;24.25;75.79
71039;SHT30;58692;43.212;27.908;2022-08-06T00:53:50;24.20;75.81
71039;SHT30;58692;43.212;27.908;2022-08-06T00:56:16;24.00;76.39
71039;SHT30;58692;43.212;27.908;2022-08-06T00:58:42;24.03;76.17
71039;SHT30;58692;43.212;27.908;2022-08-06T01:01:08;24.04;75.93
71039;SHT30;58692;43.212;27.908;2022-08-06T01:03:34;24.00;75.97
71039;SHT30;58692;43.212;27.908;2022-08-06T01:06:00;24.03;75.84
71039;SHT30;58692;43.212;27.908;2022-08-06T01:08:25;24.00;75.65
71039;SHT30;58692;43.212;27.908;2022-08-06T01:10:51;23.94;75.79
71039;SHT30;58692;43.212;27.908;2022-08-06T01:13:16;23.83;75.79
71039;SHT30;58692;43.212;27.908;2022-08-06T01:15:47;23.80;75.94
71039;SHT30;58692;43.212;27.908;2022-08-06T01:18:23;23.76;75.92
71039;SHT30;58692;43.212;27.908;2022-08-06T01:21:04;23.72;76.00
71039;SHT30;58692;43.212;27.908;2022-08-06T01:26:36;23.72;75.60
71039;SHT30;58692;43.212;27.908;2022-08-06T01:29:09;23.83;74.90
71039;SHT30;58692;43.212;27.908;2022-08-06T01:31:55;23.79;74.17
71039;SHT30;58692;43.212;27.908;2022-08-06T01:34:27;23.77;74.03
71039;SHT30;58692;43.212;27.908;2022-08-06T01:37:03;23.76;73.96
71039;SHT30;58692;43.212;27.908;2022-08-06T01:39:30;23.80;73.96
71039;SHT30;58692;43.212;27.908;2022-08-06T01:41:59;23.86;73.74
71039;SHT30;58692;43.212;27.908;2022-08-06T01:44:34;23.73;74.34
71039;SHT30;58692;43.212;27.908;2022-08-06T01:47:04;23.77;74.26
71039;SHT30;58692;43.212;27.908;2022-08-06T01:49:32;23.77;74.26
71039;SHT30;58692;43.212;27.908;2022-08-06T01:52:01;23.77;74.22
71039;SHT30;58692;43.212;27.908;2022-08-06T01:54:28;23.67;74.66
71039;SHT30;58692;43.212;27.908;2022-08-06T01:56:57;23.70;74.69
71039;SHT30;58692;43.212;27.908;2022-08-06T01:59:28;23.74;74.40
71039;SHT30;58692;43.212;27.908;2022-08-06T02:01:56;23.84;74.09
71039;SHT30;58692;43.212;27.908;2022-08-06T02:04:26;23.80;74.34
71039;SHT30;58692;43.212;27.908;2022-08-06T02:06:53;23.74;74.56
71039;SHT30;58692;43.212;27.908;2022-08-06T02:09:21;23.74;74.67
71039;SHT30;58692;43.212;27.908;2022-08-06T02:11:51;23.76;74.57
71039;SHT30;58692;43.212;27.908;2022-08-06T02:14:20;23.77;74.53
71039;SHT30;58692;43.212;27.908;2022-08-06T02:16:46;23.73;74.65
71039;SHT30;58692;43.212;27.908;2022-08-06T02:19:13;23.73;74.58
71039;SHT30;58692;43.212;27.908;2022-08-06T02:21:42;23.69;74.72
71039;SHT30;58692;43.212;27.908;2022-08-06T02:24:10;23.67;74.75
71039;SHT30;58692;43.212;27.908;2022-08-06T02:26:37;23.60;74.97
71039;SHT30;58692;43.212;27.908;2022-08-06T02:29:06;23.59;75.10
71039;SHT30;58692;43.212;27.908;2022-08-06T02:31:33;23.42;75.75
71039;SHT30;58692;43.212;27.908;2022-08-06T02:34:00;23.50;75.50
71039;SHT30;58692;43.212;27.908;2022-08-06T02:36:29;23.58;75.21
71039;SHT30;58692;43.212;27.908;2022-08-06T02:39:11;23.59;75.07
71039;SHT30;58692;43.212;27.908;2022-08-06T02:41:45;23.56;75.23
71039;SHT30;58692;43.212;27.908;2022-08-06T02:44:22;23.50;75.39
71039;SHT30;58692;43.212;27.908;2022-08-06T02:46:54;23.41;75.70
71039;SHT30;58692;43.212;27.908;2022-08-06T02:49:25;23.42;75.66
71039;SHT30;58692;43.212;27.908;2022-08-06T02:52:05;23.33;76.16
71039;SHT30;58692;43.212;27.908;2022-08-06T02:54:34;23.33;76.25
71039;SHT30;58692;43.212;27.908;2022-08-06T02:57:04;23.32;76.15
71039;SHT30;58692;43.212;27.908;2022-08-06T02:59:35;23.33;75.88
71039;SHT30;58692;43.212;27.908;2022-08-06T03:02:05;23.21;76.00
71039;SHT30;58692;43.212;27.908;2022-08-06T03:04:33;23.25;75.61
71039;SHT30;58692;43.212;27.908;2022-08-06T03:07:06;23.31;75.32
71039;SHT30;58692;43.212;27.908;2022-08-06T03:09:34;23.31;75.18
71039;SHT30;58692;43.212;27.908;2022-08-06T03:12:01;23.29;75.09
71039;SHT30;58692;43.212;27.908;2022-08-06T03:14:27;23.33;74.84
71039;SHT30;58692;43.212;27.908;2022-08-06T03:16:54;23.41;74.50
71039;SHT30;58692;43.212;27.908;2022-08-06T03:19:20;23.29;74.43
71039;SHT30;58692;43.212;27.908;2022-08-06T03:21:48;23.31;74.41
71039;SHT30;58692;43.212;27.908;2022-08-06T03:24:14;23.22;74.41
71039;SHT30;58692;43.212;27.908;2022-08-06T03:26:41;23.23;74.54
71039;SHT30;58692;43.212;27.908;2022-08-06T03:29:07;23.26;74.25
71039;SHT30;58692;43.212;27.908;2022-08-06T03:31:35;23.19;74.53
71039;SHT30;58692;43.212;27.908;2022-08-06T03:34:01;23.21;74.52
71039;SHT30;58692;43.212;27.908;2022-08-06T03:36:27;23.35;73.98
71039;SHT30;58692;43.212;27.908;2022-08-06T03:38:58;23.26;74.05
71039;SHT30;58692;43.212;27.908;2022-08-06T03:41:24;23.28;74.04
71039;SHT30;58692;43.212;27.908;2022-08-06T03:43:51;23.15;74.33
71039;SHT30;58692;43.212;27.908;2022-08-06T03:46:23;23.16;74.49
71039;SHT30;58692;43.212;27.908;2022-08-06T03:48:50;23.01;74.87
71039;SHT30;58692;43.212;27.908;2022-08-06T03:51:20;23.31;74.15
71039;SHT30;58692;43.212;27.908;2022-08-06T03:53:48;23.48;73.89
71039;SHT30;58692;43.212;27.908;2022-08-06T03:56:20;23.65;73.17
71039;SHT30;58692;43.212;27.908;2022-08-06T03:58:50;23.96;72.30
71039;SHT30;58692;43.212;27.908;2022-08-06T04:01:20;24.16;71.59
71039;SHT30;58692;43.212;27.908;2022-08-06T04:03:47;24.34;70.87
71039;SHT30;58692;43.212;27.908;2022-08-06T04:06:13;24.54;70.34
71039;SHT30;58692;43.212;27.908;2022-08-06T04:08:41;24.71;69.96
71039;SHT30;58692;43.212;27.908;2022-08-06T04:11:08;24.81;69.57
71039;SHT30;58692;43.212;27.908;2022-08-06T04:13:34;25.02;68.93
71039;SHT30;58692;43.212;27.908;2022-08-06T04:16:01;25.14;68.51
71039;SHT30;58692;43.212;27.908;2022-08-06T04:18:31;25.27;68.13
71039;SHT30;58692;43.212;27.908;2022-08-06T04:21:00;25.50;67.47
71039;SHT30;58692;43.212;27.908;2022-08-06T04:23:26;25.57;66.98
71039;SHT30;58692;43.212;27.908;2022-08-06T04:25:54;25.91;65.92
71039;SHT30;58692;43.212;27.908;2022-08-06T04:28:21;25.98;65.54
71039;SHT30;58692;43.212;27.908;2022-08-06T04:30:49;26.07;65.34
71039;SHT30;58692;43.212;27.908;2022-08-06T04:33:18;25.98;65.76
71039;SHT30;58692;43.212;27.908;2022-08-06T04:35:44;26.16;64.97
71039;SHT30;58692;43.212;27.908;2022-08-06T04:38:11;26.62;63.75
71039;SHT30;58692;43.212;27.908;2022-08-06T04:40:37;26.78;63.15
71039;SHT30;58692;43.212;27.908;2022-08-06T04:43:05;26.69;63.09
71039;SHT30;58692;43.212;27.908;2022-08-06T04:45:32;26.86;62.91
71039;SHT30;58692;43.212;27.908;2022-08-06T04:47:59;26.99;62.33
71039;SHT30;58692;43.212;27.908;2022-08-06T04:50:25;27.51;60.94
71039;SHT30;58692;43.212;27.908;2022-08-06T04:52:51;28.05;59.42
71039;SHT30;58692;43.212;27.908;2022-08-06T04:55:19;28.29;58.41
71039;SHT30;58692;43.212;27.908;2022-08-06T04:57:45;28.62;57.36
71039;SHT30;58692;43.212;27.908;2022-08-06T05:00:11;28.83;56.95
71039;SHT30;58692;43.212;27.908;2022-08-06T05:02:37;28.48;57.24
71039;SHT30;58692;43.212;27.908;2022-08-06T05:05:04;28.68;57.38
71039;SHT30;58692;43.212;27.908;2022-08-06T05:07:33;28.56;57.43
71039;SHT30;58692;43.212;27.908;2022-08-06T05:10:00;28.96;56.77
71039;SHT30;58692;43.212;27.908;2022-08-06T05:12:30;28.52;57.28
71039;SHT30;58692;43.212;27.908;2022-08-06T05:15:06;28.28;58.55
71039;SHT30;58692;43.212;27.908;2022-08-06T05:17:37;28.08;58.96
71039;SHT30;58692;43.212;27.908;2022-08-06T05:20:16;28.69;57.46
71039;SHT30;58692;43.212;27.908;2022-08-06T05:22:44;28.73;57.10
71039;SHT30;58692;43.212;27.908;2022-08-06T05:25:10;29.51;55.36
71039;SHT30;58692;43.212;27.908;2022-08-06T05:27:36;29.81;54.58
71039;SHT30;58692;43.212;27.908;2022-08-06T05:30:03;29.14;55.20
71039;SHT30;58692;43.212;27.908;2022-08-06T05:32:29;29.61;54.25
71039;SHT30;58692;43.212;27.908;2022-08-06T05:34:54;30.04;53.47
71039;SHT30;58692;43.212;27.908;2022-08-06T05:37:20;30.26;53.12
71039;SHT30;58692;43.212;27.908;2022-08-06T05:39:45;30.26;53.13
71039;SHT30;58692;43.212;27.908;2022-08-06T05:42:11;30.46;52.69
71039;SHT30;58692;43.212;27.908;2022-08-06T05:44:37;30.80;51.87
71039;SHT30;58692;43.212;27.908;2022-08-06T05:47:06;30.60;52.16
71039;SHT30;58692;43.212;27.908;2022-08-06T05:49:39;30.98;51.08
71039;SHT30;58692;43.212;27.908;2022-08-06T05:52:24;30.36;51.69
71039;SHT30;58692;43.212;27.908;2022-08-06T05:54:58;30.37;52.42
71039;SHT30;58692;43.212;27.908;2022-08-06T06:00:03;30.76;51.34
71039;SHT30;58692;43.212;27.908;2022-08-06T06:02:32;30.32;52.16
71039;SHT30;58692;43.212;27.908;2022-08-06T06:04:59;30.25;52.75
71039;SHT30;58692;43.212;27.908;2022-08-06T06:07:25;30.87;51.17
71039;SHT30;58692;43.212;27.908;2022-08-06T06:09:50;30.84;50.40
71039;SHT30;58692;43.212;27.908;2022-08-06T06:12:17;31.21;49.81
71039;SHT30;58692;43.212;27.908;2022-08-06T06:14:45;31.34;48.95
71039;SHT30;58692;43.212;27.908;2022-08-06T06:20:15;31.10;50.89
71039;SHT30;58692;43.212;27.908;2022-08-06T06:25:40;31.65;49.69
71039;SHT30;58692;43.212;27.908;2022-08-06T06:28:24;31.35;49.48
71039;SHT30;58692;43.212;27.908;2022-08-06T06:36:35;32.91;46.26
71039;SHT30;58692;43.212;27.908;2022-08-06T06:39:10;32.28;47.72
71039;SHT30;58692;43.212;27.908;2022-08-06T06:41:49;32.91;46.60
71039;SHT30;58692;43.212;27.908;2022-08-06T06:44:25;32.44;48.11
71039;SHT30;58692;43.212;27.908;2022-08-06T06:47:03;32.52;47.24
71039;SHT30;58692;43.212;27.908;2022-08-06T06:49:43;32.09;47.91
71039;SHT30;58692;43.212;27.908;2022-08-06T06:54:46;31.78;48.99
71039;SHT30;58692;43.212;27.908;2022-08-06T06:57:19;31.78;48.68
71039;SHT30;58692;43.212;27.908;2022-08-06T06:59:48;31.67;49.31
71039;SHT30;58692;43.212;27.908;2022-08-06T07:02:20;31.85;49.15
71039;SHT30;58692;43.212;27.908;2022-08-06T07:04:48;32.36;48.14
71039;SHT30;58692;43.212;27.908;2022-08-06T07:07:15;32.50;47.84
71039;SHT30;58692;43.212;27.908;2022-08-06T07:09:43;32.12;48.81
71039;SHT30;58692;43.212;27.908;2022-08-06T07:12:10;31.52;51.16
71039;SHT30;58692;43.212;27.908;2022-08-06T07:14:36;31.61;51.35
71039;SHT30;58692;43.212;27.908;2022-08-06T07:17:03;31.51;50.99
71039;SHT30;58692;43.212;27.908;2022-08-06T07:19:30;32.50;48.59
71039;SHT30;58692;43.212;27.908;2022-08-06T07:21:58;32.16;48.62
71039;SHT30;58692;43.212;27.908;2022-08-06T07:24:24;31.48;50.55
71039;SHT30;58692;43.212;27.908;2022-08-06T07:26:51;31.92;48.23
71039;SHT30;58692;43.212;27.908;2022-08-06T07:29:19;31.61;49.59
71039;SHT30;58692;43.212;27.908;2022-08-06T07:31:46;31.75;49.69
71039;SHT30;58692;43.212;27.908;2022-08-06T07:34:14;31.68;50.14
71039;SHT30;58692;43.212;27.908;2022-08-06T07:36:46;32.39;49.04
71039;SHT30;58692;43.212;27.908;2022-08-06T07:39:16;31.90;49.76
71039;SHT30;58692;43.212;27.908;2022-08-06T07:41:45;31.79;50.57
71039;SHT30;58692;43.212;27.908;2022-08-06T07:44:12;31.69;50.90
71039;SHT30;58692;43.212;27.908;2022-08-06T07:46:43;31.47;52.13
71039;SHT30;58692;43.212;27.908;2022-08-06T07:49:09;31.61;52.22
71039;SHT30;58692;43.212;27.908;2022-08-06T07:51:39;31.30;53.05
71039;SHT30;58692;43.212;27.908;2022-08-06T07:54:08;31.16;53.37
71039;SHT30;58692;43.212;27.908;2022-08-06T07:56:37;31.01;53.69
71039;SHT30;58692;43.212;27.908;2022-08-06T07:59:04;31.38;53.23
71039;SHT30;58692;43.212;27.908;2022-08-06T08:01:31;31.10;53.30
71039;SHT30;58692;43.212;27.908;2022-08-06T08:03:58;30.98;52.29
71039;SHT30;58692;43.212;27.908;2022-08-06T08:06:39;30.82;50.99
71039;SHT30;58692;43.212;27.908;2022-08-06T08:09:12;30.93;53.07
71039;SHT30;58692;43.212;27.908;2022-08-06T08:11:40;31.16;54.11
71039;SHT30;58692;43.212;27.908;2022-08-06T08:14:09;31.47;53.90
71039;SHT30;58692;43.212;27.908;2022-08-06T08:16:37;31.68;53.65
71039;SHT30;58692;43.212;27.908;2022-08-06T08:19:18;31.58;52.34
71039;SHT30;58692;43.212;27.908;2022-08-06T08:21:43;31.14;51.12
71039;SHT30;58692;43.212;27.908;2022-08-06T08:24:10;31.33;51.68
71039;SHT30;58692;43.212;27.908;2022-08-06T08:26:36;31.34;52.70
71039;SHT30;58692;43.212;27.908;2022-08-06T08:29:01;30.83;52.62
71039;SHT30;58692;43.212;27.908;2022-08-06T08:31:27;31.01;52.95
71039;SHT30;58692;43.212;27.908;2022-08-06T08:33:52;30.76;53.95
71039;SHT30;58692;43.212;27.908;2022-08-06T08:36:18;30.16;54.14
71039;SHT30;58692;43.212;27.908;2022-08-06T08:38:46;30.49;53.63
71039;SHT30;58692;43.212;27.908;2022-08-06T08:41:19;30.86;53.39
71039;SHT30;58692;43.212;27.908;2022-08-06T08:43:51;31.00;52.59
71039;SHT30;58692;43.212;27.908;2022-08-06T08:46:18;31.61;52.34
71039;SHT30;58692;43.212;27.908;2022-08-06T08:48:44;31.68;52.31
71039;SHT30;58692;43.212;27.908;2022-08-06T08:51:12;31.57;52.90
71039;SHT30;58692;43.212;27.908;2022-08-06T08:53:44;32.13;51.00
71039;SHT30;58692;43.212;27.908;2022-08-06T08:56:12;32.08;50.80
71039;SHT30;58692;43.212;27.908;2022-08-06T08:58:40;31.85;51.38
71039;SHT30;58692;43.212;27.908;2022-08-06T09:01:06;31.82;51.94
71039;SHT30;58692;43.212;27.908;2022-08-06T09:03:36;31.89;52.07
71039;SHT30;58692;43.212;27.908;2022-08-06T09:06:03;32.64;50.45
71039;SHT30;58692;43.212;27.908;2022-08-06T09:08:30;32.96;48.08
71039;SHT30;58692;43.212;27.908;2022-08-06T09:10:56;33.28;46.83
71039;SHT30;58692;43.212;27.908;2022-08-06T09:13:26;33.66;46.72
71039;SHT30;58692;43.212;27.908;2022-08-06T09:15:52;32.10;49.62
71039;SHT30;58692;43.212;27.908;2022-08-06T09:18:19;31.98;49.58
71039;SHT30;58692;43.212;27.908;2022-08-06T09:20:45;30.62;51.95
71039;SHT30;58692;43.212;27.908;2022-08-06T09:23:11;30.06;54.04
71039;SHT30;58692;43.212;27.908;2022-08-06T09:25:42;30.93;52.49
71039;SHT30;58692;43.212;27.908;2022-08-06T09:28:10;31.08;51.99
71039;SHT30;58692;43.212;27.908;2022-08-06T09:30:37;31.54;52.14
71039;SHT30;58692;43.212;27.908;2022-08-06T09:33:10;31.45;52.69
71039;SHT30;58692;43.212;27.908;2022-08-06T09:35:35;31.47;52.36
71039;SHT30;58692;43.212;27.908;2022-08-06T09:38:03;31.38;53.35
71039;SHT30;58692;43.212;27.908;2022-08-06T09:40:29;31.82;52.19
71039;SHT30;58692;43.212;27.908;2022-08-06T09:42:55;31.61;53.19
71039;SHT30;58692;43.212;27.908;2022-08-06T09:45:22;31.26;53.41
71039;SHT30;58692;43.212;27.908;2022-08-06T09:47:59;31.21;54.49
71039;SHT30;58692;43.212;27.908;2022-08-06T09:50:39;30.29;56.16
71039;SHT30;58692;43.212;27.908;2022-08-06T09:53:06;30.21;57.71
71039;SHT30;58692;43.212;27.908;2022-08-06T09:55:32;29.89;59.01
71039;SHT30;58692;43.212;27.908;2022-08-06T09:57:59;29.82;58.78
71039;SHT30;58692;43.212;27.908;2022-08-06T10:00:26;29.74;58.51
71039;SHT30;58692;43.212;27.908;2022-08-06T10:02:57;30.05;58.21
71039;SHT30;58692;43.212;27.908;2022-08-06T10:05:24;29.72;59.10
71039;SHT30;58692;43.212;27.908;2022-08-06T10:08:07;29.93;58.90
71039;SHT30;58692;43.212;27.908;2022-08-06T10:10:38;29.95;59.29
71039;SHT30;58692;43.212;27.908;2022-08-06T10:13:20;31.21;55.73
71039;SHT30;58692;43.212;27.908;2022-08-06T10:15:49;30.63;57.61
71039;SHT30;58692;43.212;27.908;2022-08-06T10:18:29;30.47;58.19
71039;SHT30;58692;43.212;27.908;2022-08-06T10:21:05;29.97;60.35
71039;SHT30;58692;43.212;27.908;2022-08-06T10:23:34;30.36;59.59
71039;SHT30;58692;43.212;27.908;2022-08-06T10:26:06;30.11;60.49
71039;SHT30;58692;43.212;27.908;2022-08-06T10:28:34;29.75;61.46
71039;SHT30;58692;43.212;27.908;2022-08-06T10:31:03;29.74;62.04
71039;SHT30;58692;43.212;27.908;2022-08-06T10:33:33;29.67;61.74
71039;SHT30;58692;43.212;27.908;2022-08-06T10:36:04;30.40;58.28
71039;SHT30;58692;43.212;27.908;2022-08-06T10:38:34;31.17;56.82
71039;SHT30;58692;43.212;27.908;2022-08-06T10:41:06;32.10;54.85
71039;SHT30;58692;43.212;27.908;2022-08-06T10:43:35;31.59;55.20
71039;SHT30;58692;43.212;27.908;2022-08-06T10:46:04;31.86;52.99
71039;SHT30;58692;43.212;27.908;2022-08-06T10:48:30;32.35;52.03
71039;SHT30;58692;43.212;27.908;2022-08-06T10:50:56;31.79;54.70
71039;SHT30;58692;43.212;27.908;2022-08-06T10:53:21;32.13;53.66
71039;SHT30;58692;43.212;27.908;2022-08-06T10:55:54;32.63;53.01
71039;SHT30;58692;43.212;27.908;2022-08-06T10:58:20;31.79;54.58
71039;SHT30;58692;43.212;27.908;2022-08-06T11:00:46;30.83;57.68
71039;SHT30;58692;43.212;27.908;2022-08-06T11:03:19;30.29;59.41
71039;SHT30;58692;43.212;27.908;2022-08-06T11:06:05;30.39;58.67
71039;SHT30;58692;43.212;27.908;2022-08-06T11:08:54;30.52;59.16
71039;SHT30;58692;43.212;27.908;2022-08-06T11:16:26;29.62;62.14
71039;SHT30;58692;43.212;27.908;2022-08-06T11:19:09;29.68;62.08
71039;SHT30;58692;43.212;27.908;2022-08-06T11:21:38;29.65;61.34
71039;SHT30;58692;43.212;27.908;2022-08-06T11:24:04;29.43;62.68
71039;SHT30;58692;43.212;27.908;2022-08-06T11:26:35;29.64;61.47
71039;SHT30;58692;43.212;27.908;2022-08-06T11:29:02;29.92;61.79
71039;SHT30;58692;43.212;27.908;2022-08-06T11:31:31;29.65;62.27
71039;SHT30;58692;43.212;27.908;2022-08-06T11:33:59;29.34;59.30
71039;SHT30;58692;43.212;27.908;2022-08-06T11:36:27;29.51;59.17
71039;SHT30;58692;43.212;27.908;2022-08-06T11:41:28;29.30;62.04
71039;SHT30;58692;43.212;27.908;2022-08-06T11:46:25;29.27;61.54
71039;SHT30;58692;43.212;27.908;2022-08-06T11:54:24;29.55;60.83
71039;SHT30;58692;43.212;27.908;2022-08-06T11:59:38;29.16;61.72
71039;SHT30;58692;43.212;27.908;2022-08-06T12:02:05;29.26;61.42
71039;SHT30;58692;43.212;27.908;2022-08-06T12:07:23;28.96;62.20
71039;SHT30;58692;43.212;27.908;2022-08-06T12:14:59;28.95;61.74
71039;SHT30;58692;43.212;27.908;2022-08-06T12:17:27;29.17;59.68
71039;SHT30;58692;43.212;27.908;2022-08-06T12:19:56;29.19;59.91
71039;SHT30;58692;43.212;27.908;2022-08-06T12:22:23;29.47;59.49
71039;SHT30;58692;43.212;27.908;2022-08-06T12:24:51;29.34;59.97
71039;SHT30;58692;43.212;27.908;2022-08-06T12:27:19;29.24;60.31
71039;SHT30;58692;43.212;27.908;2022-08-06T12:29:45;29.03;61.18
71039;SHT30;58692;43.212;27.908;2022-08-06T12:32:29;29.47;60.51
71039;SHT30;58692;43.212;27.908;2022-08-06T12:34:59;29.44;60.29
71039;SHT30;58692;43.212;27.908;2022-08-06T12:37:41;29.26;60.78
71039;SHT30;58692;43.212;27.908;2022-08-06T12:40:10;29.06;61.86
71039;SHT30;58692;43.212;27.908;2022-08-06T12:42:53;29.04;61.55
71039;SHT30;58692;43.212;27.908;2022-08-06T12:45:28;29.21;61.11
71039;SHT30;58692;43.212;27.908;2022-08-06T12:48:03;29.34;61.32
71039;SHT30;58692;43.212;27.908;2022-08-06T12:50:31;29.16;61.27
71039;SHT30;58692;43.212;27.908;2022-08-06T12:55:33;28.99;62.63
71039;SHT30;58692;43.212;27.908;2022-08-06T12:58:01;28.80;61.70
71039;SHT30;58692;43.212;27.908;2022-08-06T13:00:28;28.68;62.81
71039;SHT30;58692;43.212;27.908;2022-08-06T13:02:55;28.80;62.35
71039;SHT30;58692;43.212;27.908;2022-08-06T13:05:22;29.16;61.96
71039;SHT30;58692;43.212;27.908;2022-08-06T13:07:54;28.95;61.51
71039;SHT30;58692;43.212;27.908;2022-08-06T13:10:20;29.03;61.55
71039;SHT30;58692;43.212;27.908;2022-08-06T13:12:53;28.99;62.76
71039;SHT30;58692;43.212;27.908;2022-08-06T13:15:20;28.90;63.00
71039;SHT30;58692;43.212;27.908;2022-08-06T13:18:01;28.51;63.69
71039;SHT30;58692;43.212;27.908;2022-08-06T13:20:45;28.35;65.07
71039;SHT30;58692;43.212;27.908;2022-08-06T13:23:13;28.49;65.11
71039;SHT30;58692;43.212;27.908;2022-08-06T13:28:13;28.60;64.54
71039;SHT30;58692;43.212;27.908;2022-08-06T13:30:41;28.78;63.18
71039;SHT30;58692;43.212;27.908;2022-08-06T13:35:44;28.62;63.58
71039;SHT30;58692;43.212;27.908;2022-08-06T13:38:10;28.51;64.10
71039;SHT30;58692;43.212;27.908;2022-08-06T13:40:38;28.38;65.27
71039;SHT30;58692;43.212;27.908;2022-08-06T13:43:04;28.41;65.31
71039;SHT30;58692;43.212;27.908;2022-08-06T13:45:31;28.31;65.30
71039;SHT30;58692;43.212;27.908;2022-08-06T13:48:07;28.21;66.33
71039;SHT30;58692;43.212;27.908;2022-08-06T13:50:36;28.32;66.45
71039;SHT30;58692;43.212;27.908;2022-08-06T13:53:03;28.66;64.25
71039;SHT30;58692;43.212;27.908;2022-08-06T13:55:29;28.39;64.77
71039;SHT30;58692;43.212;27.908;2022-08-06T13:57:56;28.31;65.95
71039;SHT30;58692;43.212;27.908;2022-08-06T14:00:23;28.14;65.11
71039;SHT30;58692;43.212;27.908;2022-08-06T14:02:50;28.09;65.88
71039;SHT30;58692;43.212;27.908;2022-08-06T14:05:15;28.08;64.75
71039;SHT30;58692;43.212;27.908;2022-08-06T14:07:41;28.28;65.27
71039;SHT30;58692;43.212;27.908;2022-08-06T14:10:07;28.35;65.24
71039;SHT30;58692;43.212;27.908;2022-08-06T14:12:33;28.36;65.41
71039;SHT30;58692;43.212;27.908;2022-08-06T14:14:59;28.18;66.47
71039;SHT30;58692;43.212;27.908;2022-08-06T14:17:24;28.21;64.95
71039;SHT30;58692;43.212;27.908;2022-08-06T14:19:50;28.07;64.89
71039;SHT30;58692;43.212;27.908;2022-08-06T14:22:16;28.26;64.92
71039;SHT30;58692;43.212;27.908;2022-08-06T14:24:43;28.24;65.98
71039;SHT30;58692;43.212;27.908;2022-08-06T14:27:10;28.18;65.54
71039;SHT30;58692;43.212;27.908;2022-08-06T14:29:36;28.08;66.65
71039;SHT30;58692;43.212;27.908;2022-08-06T14:32:03;28.05;66.63
71039;SHT30;58692;43.212;27.908;2022-08-06T14:34:30;27.95;66.48
71039;SHT30;58692;43.212;27.908;2022-08-06T14:36:56;27.85;66.64
71039;SHT30;58692;43.212;27.908;2022-08-06T14:39:21;27.88;66.25
71039;SHT30;58692;43.212;27.908;2022-08-06T14:41:47;27.84;66.52
71039;SHT30;58692;43.212;27.908;2022-08-06T14:44:28;27.93;66.24
71039;SHT30;58692;43.212;27.908;2022-08-06T14:47:09;27.97;66.49
71039;SHT30;58692;43.212;27.908;2022-08-06T14:49:35;27.84;67.04
71039;SHT30;58692;43.212;27.908;2022-08-06T14:52:02;27.90;67.02
71039;SHT30;58692;43.212;27.908;2022-08-06T14:54:28;27.90;66.76
71039;SHT30;58692;43.212;27.908;2022-08-06T14:56:54;27.81;67.03
71039;SHT30;58692;43.212;27.908;2022-08-06T14:59:21;27.85;66.08
71039;SHT30;58692;43.212;27.908;2022-08-06T15:01:46;27.95;66.53
71039;SHT30;58692;43.212;27.908;2022-08-06T15:04:12;27.78;67.00
71039;SHT30;58692;43.212;27.908;2022-08-06T15:06:38;27.74;67.15
71039;SHT30;58692;43.212;27.908;2022-08-06T15:09:04;27.80;67.10
71039;SHT30;58692;43.212;27.908;2022-08-06T15:11:29;27.83;67.08
71039;SHT30;58692;43.212;27.908;2022-08-06T15:13:55;27.77;67.55
71039;SHT30;58692;43.212;27.908;2022-08-06T15:16:21;27.91;67.17
71039;SHT30;58692;43.212;27.908;2022-08-06T15:18:51;27.98;66.96
71039;SHT30;58692;43.212;27.908;2022-08-06T15:21:17;27.97;66.83
71039;SHT30;58692;43.212;27.908;2022-08-06T15:23:45;27.74;67.15
71039;SHT30;58692;43.212;27.908;2022-08-06T15:26:11;27.77;67.18
71039;SHT30;58692;43.212;27.908;2022-08-06T15:28:38;27.85;66.88
71039;SHT30;58692;43.212;27.908;2022-08-06T15:31:09;27.80;66.93
71039;SHT30;58692;43.212;27.908;2022-08-06T15:33:35;27.70;66.97
71039;SHT30;58692;43.212;27.908;2022-08-06T15:36:01;27.63;67.43
71039;SHT30;58692;43.212;27.908;2022-08-06T15:38:27;27.85;66.96
71039;SHT30;58692;43.212;27.908;2022-08-06T15:40:54;27.93;66.85
71039;SHT30;58692;43.212;27.908;2022-08-06T15:43:20;27.95;66.95
71039;SHT30;58692;43.212;27.908;2022-08-06T15:45:46;27.93;67.20
71039;SHT30;58692;43.212;27.908;2022-08-06T15:48:12;28.05;66.91
71039;SHT30;58692;43.212;27.908;2022-08-06T15:50:43;27.85;67.27
71039;SHT30;58692;43.212;27.908;2022-08-06T15:53:10;27.88;67.51
71039;SHT30;58692;43.212;27.908;2022-08-06T15:55:36;27.90;67.69
71039;SHT30;58692;43.212;27.908;2022-08-06T15:58:01;28.02;67.49
71039;SHT30;58692;43.212;27.908;2022-08-06T16:00:28;28.08;66.91
71039;SHT30;58692;43.212;27.908;2022-08-06T16:02:53;28.15;66.72
71039;SHT30;58692;43.212;27.908;2022-08-06T16:05:20;28.25;66.70
71039;SHT30;58692;43.212;27.908;2022-08-06T16:07:47;28.02;67.17
71039;SHT30;58692;43.212;27.908;2022-08-06T16:10:12;27.94;67.72
71039;SHT30;58692;43.212;27.908;2022-08-06T16:12:38;27.93;68.32
71039;SHT30;58692;43.212;27.908;2022-08-06T16:15:06;27.87;68.64
71039;SHT30;58692;43.212;27.908;2022-08-06T16:17:32;27.91;68.64